CMP420 MPTO-SAME
Flight info
| Callsign | CMP420 |
|---|---|
| Flight time | 5h 48m |
| Altitude | 35000 |
| Route | DAND1A DANDA MILAT UM674 ATATU UV1 KALAR UL308 JCL UL302 TOY UL416 JUA UW3 MEBRA MEBR3Q |
| Aircraft | B38M/M-SDE3FGHIRWY/S |
Departure
| Time | 2026-05-05 15:33 |
|---|---|
| Airport | Tocumen International Airport (MPTO) |
Arrival
| Time | 2026-05-05 21:22 |
|---|---|
| Airport | Governor Francisco Gabrielli International Airport (SAME) |
| Time | Latitude | Longitude | Altitude | Speed | Heading |
|---|---|---|---|---|---|
| 2026-05-05 14:41 | 9.06056 | -79.39091 | 32 ft | 0 kts | 317° |
| 2026-05-05 15:22 | 9.06053 | -79.39087 | 32 ft | 3 kts | 317° |
| 2026-05-05 15:22 | 9.06028 | -79.39061 | 32 ft | 4 kts | 308° |
| 2026-05-05 15:23 | 9.06018 | -79.39047 | 32 ft | 4 kts | 294° |
| 2026-05-05 15:23 | 9.06015 | -79.39025 | 32 ft | 4 kts | 232° |
| 2026-05-05 15:23 | 9.06022 | -79.39019 | 32 ft | 1 kts | 212° |
| 2026-05-05 15:23 | 9.06023 | -79.39018 | 32 ft | 0 kts | 212° |
| 2026-05-05 15:27 | 9.06020 | -79.39021 | 32 ft | 2 kts | 212° |
| 2026-05-05 15:28 | 9.05986 | -79.39041 | 32 ft | 10 kts | 210° |
| 2026-05-05 15:28 | 9.05902 | -79.39089 | 32 ft | 15 kts | 209° |
| 2026-05-05 15:28 | 9.05824 | -79.39133 | 32 ft | 15 kts | 208° |
| 2026-05-05 15:28 | 9.05746 | -79.39173 | 32 ft | 10 kts | 194° |
| 2026-05-05 15:29 | 9.05687 | -79.39126 | 32 ft | 13 kts | 120° |
| 2026-05-05 15:29 | 9.05635 | -79.39034 | 32 ft | 15 kts | 120° |
| 2026-05-05 15:29 | 9.05568 | -79.38988 | 32 ft | 14 kts | 195° |
| 2026-05-05 15:29 | 9.05472 | -79.39040 | 32 ft | 17 kts | 210° |
| 2026-05-05 15:30 | 9.05353 | -79.39108 | 32 ft | 22 kts | 210° |
| 2026-05-05 15:30 | 9.05204 | -79.39194 | 32 ft | 27 kts | 210° |
| 2026-05-05 15:30 | 9.05041 | -79.39287 | 32 ft | 24 kts | 210° |
| 2026-05-05 15:30 | 9.04917 | -79.39357 | 32 ft | 18 kts | 209° |
| 2026-05-05 15:31 | 9.04831 | -79.39363 | 33 ft | 11 kts | 136° |
| 2026-05-05 15:31 | 9.04804 | -79.39316 | 33 ft | 7 kts | 117° |
| 2026-05-05 15:31 | 9.04783 | -79.39270 | 34 ft | 7 kts | 97° |
| 2026-05-05 15:31 | 9.04810 | -79.39234 | 34 ft | 3 kts | 28° |
| 2026-05-05 15:32 | 9.04835 | -79.39219 | 34 ft | 6 kts | 29° |
| 2026-05-05 15:32 | 9.05047 | -79.39098 | 34 ft | 69 kts | 29° |
| 2026-05-05 15:32 | 9.05661 | -79.38750 | 34 ft | 131 kts | 29° |
| 2026-05-05 15:32 | 9.06605 | -79.38213 | 33 ft | 179 kts | 30° |
| 2026-05-05 15:33 | 9.07741 | -79.37567 | 430 ft | 191 kts | 29° |
| 2026-05-05 15:33 | 9.08864 | -79.36813 | 1057 ft | 193 kts | 39° |
| 2026-05-05 15:33 | 9.09754 | -79.35797 | 1740 ft | 194 kts | 62° |
| 2026-05-05 15:33 | 9.10134 | -79.34452 | 2247 ft | 209 kts | 87° |
| 2026-05-05 15:34 | 9.09910 | -79.32956 | 2718 ft | 223 kts | 105° |
| 2026-05-05 15:34 | 9.09362 | -79.31416 | 3147 ft | 244 kts | 109° |
| 2026-05-05 15:34 | 9.08757 | -79.29784 | 3836 ft | 252 kts | 107° |
| 2026-05-05 15:34 | 9.08213 | -79.28071 | 4561 ft | 258 kts | 106° |
| 2026-05-05 15:35 | 9.07692 | -79.26328 | 5373 ft | 260 kts | 105° |
| 2026-05-05 15:35 | 9.07225 | -79.24537 | 6121 ft | 265 kts | 102° |
| 2026-05-05 15:35 | 9.06802 | -79.22706 | 6842 ft | 269 kts | 101° |
| 2026-05-05 15:35 | 9.06298 | -79.20870 | 7548 ft | 274 kts | 111° |
| 2026-05-05 15:36 | 9.05281 | -79.19254 | 8196 ft | 282 kts | 135° |
| 2026-05-05 15:36 | 9.03592 | -79.18255 | 8912 ft | 286 kts | 165° |
| 2026-05-05 15:36 | 9.01591 | -79.18172 | 9608 ft | 294 kts | 186° |
| 2026-05-05 15:36 | 8.99565 | -79.18596 | 10272 ft | 301 kts | 196° |
| 2026-05-05 15:37 | 8.97689 | -79.19541 | 11064 ft | 304 kts | 215° |
| 2026-05-05 15:37 | 8.95944 | -79.20791 | 11668 ft | 311 kts | 211° |
| 2026-05-05 15:37 | 8.94106 | -79.21944 | 12405 ft | 312 kts | 209° |
| 2026-05-05 15:37 | 8.92205 | -79.23039 | 13027 ft | 316 kts | 206° |
| 2026-05-05 15:38 | 8.90250 | -79.24073 | 13706 ft | 319 kts | 205° |
| 2026-05-05 15:38 | 8.88245 | -79.25076 | 14277 ft | 322 kts | 204° |
| 2026-05-05 15:38 | 8.86214 | -79.26059 | 14876 ft | 325 kts | 203° |
| 2026-05-05 15:38 | 8.84154 | -79.27041 | 15422 ft | 331 kts | 202° |
| 2026-05-05 15:39 | 8.82026 | -79.28044 | 15615 ft | 348 kts | 202° |
| 2026-05-05 15:39 | 8.79779 | -79.29097 | 15812 ft | 363 kts | 202° |
| 2026-05-05 15:39 | 8.77464 | -79.30178 | 16279 ft | 367 kts | 202° |
| 2026-05-05 15:39 | 8.75134 | -79.31265 | 16823 ft | 371 kts | 202° |
| 2026-05-05 15:40 | 8.72808 | -79.32349 | 17323 ft | 374 kts | 202° |
| 2026-05-05 15:40 | 8.70428 | -79.33458 | 17845 ft | 377 kts | 202° |
| 2026-05-05 15:40 | 8.68032 | -79.34574 | 18329 ft | 380 kts | 202° |
| 2026-05-05 15:40 | 8.65627 | -79.35696 | 18757 ft | 383 kts | 202° |
| 2026-05-05 15:41 | 8.63195 | -79.36829 | 19181 ft | 385 kts | 203° |
| 2026-05-05 15:41 | 8.60721 | -79.37866 | 19579 ft | 386 kts | 193° |
| 2026-05-05 15:41 | 8.58071 | -79.38201 | 19995 ft | 385 kts | 179° |
| 2026-05-05 15:41 | 8.55409 | -79.38261 | 20317 ft | 390 kts | 179° |
| 2026-05-05 15:42 | 8.52689 | -79.38304 | 20715 ft | 392 kts | 179° |
| 2026-05-05 15:42 | 8.49944 | -79.38330 | 21106 ft | 395 kts | 179° |
| 2026-05-05 15:42 | 8.47177 | -79.38346 | 21497 ft | 398 kts | 179° |
| 2026-05-05 15:42 | 8.44394 | -79.38356 | 21879 ft | 401 kts | 179° |
| 2026-05-05 15:43 | 8.41594 | -79.38364 | 22253 ft | 404 kts | 179° |
| 2026-05-05 15:43 | 8.38769 | -79.38372 | 22618 ft | 407 kts | 179° |
| 2026-05-05 15:43 | 8.35937 | -79.38379 | 22997 ft | 409 kts | 179° |
| 2026-05-05 15:43 | 8.33080 | -79.38386 | 23361 ft | 412 kts | 179° |
| 2026-05-05 15:44 | 8.30208 | -79.38393 | 23679 ft | 415 kts | 179° |
| 2026-05-05 15:44 | 8.27315 | -79.38400 | 23988 ft | 417 kts | 179° |
| 2026-05-05 15:44 | 8.24407 | -79.38408 | 24304 ft | 418 kts | 179° |
| 2026-05-05 15:44 | 8.21482 | -79.38415 | 24613 ft | 420 kts | 179° |
| 2026-05-05 15:45 | 8.18554 | -79.38422 | 24930 ft | 422 kts | 179° |
| 2026-05-05 15:45 | 8.15607 | -79.38430 | 25245 ft | 424 kts | 179° |
| 2026-05-05 15:45 | 8.12656 | -79.38438 | 25550 ft | 426 kts | 179° |
| 2026-05-05 15:45 | 8.09694 | -79.38445 | 25851 ft | 428 kts | 179° |
| 2026-05-05 15:46 | 8.06712 | -79.38453 | 26155 ft | 429 kts | 179° |
| 2026-05-05 15:46 | 8.03753 | -79.38460 | 26446 ft | 431 kts | 179° |
| 2026-05-05 15:46 | 8.00745 | -79.38468 | 26740 ft | 433 kts | 179° |
| 2026-05-05 15:46 | 7.97727 | -79.38476 | 27030 ft | 435 kts | 179° |
| 2026-05-05 15:47 | 7.94693 | -79.38483 | 27325 ft | 437 kts | 179° |
| 2026-05-05 15:47 | 7.92673 | -79.38488 | 27515 ft | 438 kts | 179° |
| 2026-05-05 15:47 | 7.88586 | -79.38499 | 27894 ft | 440 kts | 179° |
| 2026-05-05 15:47 | 7.85532 | -79.38506 | 28168 ft | 442 kts | 179° |
| 2026-05-05 15:48 | 7.82443 | -79.38514 | 28444 ft | 444 kts | 179° |
| 2026-05-05 15:48 | 7.79354 | -79.38522 | 28729 ft | 445 kts | 179° |
| 2026-05-05 15:48 | 7.76249 | -79.38530 | 28988 ft | 447 kts | 179° |
| 2026-05-05 15:48 | 7.73129 | -79.38538 | 29246 ft | 449 kts | 179° |
| 2026-05-05 15:49 | 7.70032 | -79.38546 | 29489 ft | 450 kts | 179° |
| 2026-05-05 15:49 | 7.66893 | -79.38554 | 29736 ft | 452 kts | 179° |
| 2026-05-05 15:49 | 7.63736 | -79.38562 | 29979 ft | 454 kts | 179° |
| 2026-05-05 15:49 | 7.60585 | -79.38570 | 30188 ft | 456 kts | 179° |
| 2026-05-05 15:50 | 7.57406 | -79.38578 | 30398 ft | 457 kts | 179° |
| 2026-05-05 15:50 | 7.54221 | -79.38586 | 30605 ft | 458 kts | 179° |
| 2026-05-05 15:50 | 7.51019 | -79.38594 | 30809 ft | 460 kts | 179° |
| 2026-05-05 15:50 | 7.47812 | -79.38602 | 31017 ft | 461 kts | 179° |
| 2026-05-05 15:51 | 7.44597 | -79.38610 | 31219 ft | 462 kts | 179° |
| 2026-05-05 15:51 | 7.41373 | -79.38618 | 31449 ft | 463 kts | 179° |
| 2026-05-05 15:51 | 7.38144 | -79.38626 | 31632 ft | 464 kts | 179° |
| 2026-05-05 15:51 | 7.34921 | -79.38635 | 31816 ft | 466 kts | 179° |
| 2026-05-05 15:52 | 7.31716 | -79.38643 | 32001 ft | 467 kts | 179° |
| 2026-05-05 15:52 | 7.28465 | -79.38447 | 32179 ft | 467 kts | 172° |
| 2026-05-05 15:52 | 7.25234 | -79.38072 | 32350 ft | 469 kts | 172° |
| 2026-05-05 15:52 | 7.21985 | -79.37692 | 32516 ft | 470 kts | 172° |
| 2026-05-05 15:53 | 7.18730 | -79.37306 | 32704 ft | 472 kts | 172° |
| 2026-05-05 15:53 | 7.15460 | -79.36916 | 32888 ft | 473 kts | 172° |
| 2026-05-05 15:53 | 7.12193 | -79.36527 | 33132 ft | 472 kts | 172° |
| 2026-05-05 15:53 | 7.08941 | -79.36140 | 33380 ft | 472 kts | 172° |
| 2026-05-05 15:54 | 7.05678 | -79.35751 | 33629 ft | 471 kts | 172° |
| 2026-05-05 15:54 | 7.02421 | -79.35363 | 33876 ft | 471 kts | 172° |
| 2026-05-05 15:54 | 6.99168 | -79.34975 | 34095 ft | 470 kts | 172° |
| 2026-05-05 15:54 | 6.95917 | -79.34588 | 34301 ft | 470 kts | 172° |
| 2026-05-05 15:55 | 6.92668 | -79.34201 | 34503 ft | 469 kts | 172° |
| 2026-05-05 15:55 | 6.89473 | -79.33821 | 34702 ft | 469 kts | 172° |
| 2026-05-05 15:55 | 6.86245 | -79.33437 | 34882 ft | 469 kts | 172° |
| 2026-05-05 15:56 | 6.79753 | -79.32664 | 34933 ft | 467 kts | 172° |
| 2026-05-05 15:56 | 6.73307 | -79.31897 | 34948 ft | 467 kts | 172° |
| 2026-05-05 15:57 | 6.66853 | -79.31129 | 34944 ft | 467 kts | 172° |
| 2026-05-05 15:57 | 6.60433 | -79.30365 | 34943 ft | 467 kts | 172° |
| 2026-05-05 15:58 | 6.53974 | -79.29597 | 34944 ft | 467 kts | 172° |
| 2026-05-05 15:58 | 6.47516 | -79.28830 | 34947 ft | 467 kts | 172° |
| 2026-05-05 15:59 | 6.41057 | -79.28062 | 34938 ft | 467 kts | 172° |
| 2026-05-05 15:59 | 6.34611 | -79.27296 | 34942 ft | 467 kts | 172° |
| 2026-05-05 16:00 | 6.28169 | -79.26531 | 34946 ft | 471 kts | 172° |
| 2026-05-05 16:00 | 6.21663 | -79.25758 | 34942 ft | 471 kts | 172° |
| 2026-05-05 16:01 | 6.15153 | -79.24986 | 34937 ft | 471 kts | 172° |
| 2026-05-05 16:01 | 6.08660 | -79.24215 | 34935 ft | 470 kts | 172° |
| 2026-05-05 16:02 | 6.02157 | -79.23443 | 34938 ft | 470 kts | 172° |
| 2026-05-05 16:02 | 5.95653 | -79.22671 | 34938 ft | 470 kts | 172° |
| 2026-05-05 16:03 | 5.89147 | -79.21916 | 34938 ft | 470 kts | 172° |
| 2026-05-05 16:03 | 5.82693 | -79.21166 | 34941 ft | 470 kts | 172° |
| 2026-05-05 16:04 | 5.76183 | -79.20409 | 34935 ft | 470 kts | 172° |
| 2026-05-05 16:04 | 5.69681 | -79.19654 | 34938 ft | 470 kts | 172° |
| 2026-05-05 16:05 | 5.63168 | -79.18898 | 34940 ft | 470 kts | 172° |
| 2026-05-05 16:05 | 5.56678 | -79.18145 | 34942 ft | 470 kts | 172° |
| 2026-05-05 16:06 | 5.50219 | -79.17395 | 34934 ft | 470 kts | 172° |
| 2026-05-05 16:06 | 5.43710 | -79.16639 | 34938 ft | 470 kts | 172° |
| 2026-05-05 16:07 | 5.37212 | -79.15886 | 34938 ft | 470 kts | 172° |
| 2026-05-05 16:07 | 5.30701 | -79.15130 | 34934 ft | 470 kts | 172° |
| 2026-05-05 16:08 | 5.24194 | -79.14376 | 34935 ft | 470 kts | 172° |
| 2026-05-05 16:08 | 5.17701 | -79.13623 | 34929 ft | 469 kts | 172° |
| 2026-05-05 16:09 | 5.11266 | -79.12877 | 34936 ft | 470 kts | 172° |
| 2026-05-05 16:09 | 5.04769 | -79.12124 | 34935 ft | 469 kts | 172° |
| 2026-05-05 16:10 | 4.98277 | -79.11372 | 34931 ft | 470 kts | 172° |
| 2026-05-05 16:10 | 4.91785 | -79.10619 | 34931 ft | 469 kts | 172° |
| 2026-05-05 16:11 | 4.86406 | -79.09996 | 34932 ft | 469 kts | 172° |
| 2026-05-05 16:12 | 4.73458 | -79.08497 | 34934 ft | 468 kts | 172° |
| 2026-05-05 16:13 | 4.57290 | -79.06626 | 34929 ft | 468 kts | 172° |
| 2026-05-05 16:13 | 4.50809 | -79.05876 | 34927 ft | 468 kts | 172° |
| 2026-05-05 16:14 | 4.37906 | -79.04383 | 34935 ft | 468 kts | 172° |
| 2026-05-05 16:15 | 4.24957 | -79.02886 | 34934 ft | 468 kts | 172° |
| 2026-05-05 16:16 | 4.12007 | -79.01389 | 34931 ft | 468 kts | 172° |
| 2026-05-05 16:17 | 4.02357 | -79.00273 | 34934 ft | 466 kts | 172° |
| 2026-05-05 16:18 | 3.92685 | -78.99156 | 34932 ft | 466 kts | 172° |
| 2026-05-05 16:19 | 3.83024 | -78.98040 | 34932 ft | 466 kts | 172° |
| 2026-05-05 16:19 | 3.73348 | -78.96922 | 34933 ft | 466 kts | 172° |
| 2026-05-05 16:20 | 3.60512 | -78.95440 | 34927 ft | 466 kts | 172° |
| 2026-05-05 16:22 | 3.44390 | -78.93580 | 34930 ft | 466 kts | 172° |
| 2026-05-05 16:23 | 3.31513 | -78.92094 | 34929 ft | 466 kts | 172° |
| 2026-05-05 16:23 | 3.21880 | -78.90982 | 34930 ft | 466 kts | 172° |
| 2026-05-05 16:24 | 3.15434 | -78.90239 | 34931 ft | 466 kts | 172° |
| 2026-05-05 16:25 | 3.05767 | -78.89124 | 34935 ft | 466 kts | 172° |
| 2026-05-05 16:25 | 2.96103 | -78.88010 | 34934 ft | 465 kts | 172° |
| 2026-05-05 16:26 | 2.83294 | -78.86533 | 34932 ft | 464 kts | 172° |
| 2026-05-05 16:27 | 2.76866 | -78.85792 | 34932 ft | 464 kts | 172° |
| 2026-05-05 16:27 | 2.70486 | -78.85057 | 34932 ft | 464 kts | 172° |
| 2026-05-05 16:28 | 2.64078 | -78.84319 | 34932 ft | 464 kts | 172° |
| 2026-05-05 16:28 | 2.57653 | -78.83578 | 34931 ft | 464 kts | 172° |
| 2026-05-05 16:29 | 2.51231 | -78.82838 | 34927 ft | 464 kts | 172° |
| 2026-05-05 16:29 | 2.44804 | -78.82098 | 34926 ft | 464 kts | 172° |
| 2026-05-05 16:30 | 2.38389 | -78.81359 | 34935 ft | 465 kts | 172° |
| 2026-05-05 16:30 | 2.32005 | -78.80624 | 34929 ft | 464 kts | 172° |
| 2026-05-05 16:31 | 2.25579 | -78.79884 | 34929 ft | 465 kts | 172° |
| 2026-05-05 16:31 | 2.19143 | -78.79142 | 34930 ft | 466 kts | 172° |
| 2026-05-05 16:32 | 2.12690 | -78.78399 | 34926 ft | 466 kts | 172° |
| 2026-05-05 16:32 | 2.06243 | -78.77657 | 34926 ft | 466 kts | 172° |
| 2026-05-05 16:33 | 1.99836 | -78.76920 | 34926 ft | 466 kts | 172° |
| 2026-05-05 16:33 | 1.93380 | -78.76176 | 34929 ft | 466 kts | 172° |
| 2026-05-05 16:34 | 1.86937 | -78.75435 | 34932 ft | 466 kts | 172° |
| 2026-05-05 16:34 | 1.80478 | -78.74674 | 34967 ft | 467 kts | 171° |
| 2026-05-05 16:35 | 1.74059 | -78.73879 | 34969 ft | 467 kts | 171° |
| 2026-05-05 16:35 | 1.67598 | -78.73084 | 34959 ft | 467 kts | 171° |
| 2026-05-05 16:36 | 1.61147 | -78.72290 | 34964 ft | 467 kts | 171° |
| 2026-05-05 16:36 | 1.54691 | -78.71496 | 34964 ft | 467 kts | 171° |
| 2026-05-05 16:37 | 1.48239 | -78.70701 | 34980 ft | 467 kts | 171° |
| 2026-05-05 16:37 | 1.41774 | -78.69906 | 34977 ft | 468 kts | 171° |
| 2026-05-05 16:38 | 1.35309 | -78.69111 | 34988 ft | 468 kts | 171° |
| 2026-05-05 16:38 | 1.28888 | -78.68279 | 35000 ft | 468 kts | 171° |
| 2026-05-05 16:39 | 1.22425 | -78.67436 | 35001 ft | 468 kts | 171° |
| 2026-05-05 16:39 | 1.15954 | -78.66594 | 35035 ft | 468 kts | 171° |
| 2026-05-05 16:40 | 1.09499 | -78.65753 | 35037 ft | 468 kts | 171° |
| 2026-05-05 16:40 | 1.03040 | -78.64912 | 35086 ft | 468 kts | 171° |
| 2026-05-05 16:41 | 0.96570 | -78.64069 | 35086 ft | 468 kts | 171° |
| 2026-05-05 16:41 | 0.90119 | -78.63229 | 35088 ft | 468 kts | 171° |
| 2026-05-05 16:42 | 0.83705 | -78.62394 | 35141 ft | 468 kts | 171° |
| 2026-05-05 16:42 | 0.77239 | -78.61552 | 35139 ft | 468 kts | 171° |
| 2026-05-05 16:43 | 0.70785 | -78.60712 | 35184 ft | 468 kts | 171° |
| 2026-05-05 16:43 | 0.64322 | -78.59869 | 35187 ft | 469 kts | 171° |
| 2026-05-05 16:44 | 0.57861 | -78.59029 | 35215 ft | 468 kts | 171° |
| 2026-05-05 16:44 | 0.51387 | -78.58185 | 35222 ft | 469 kts | 170° |
| 2026-05-05 16:45 | 0.44954 | -78.57363 | 35214 ft | 468 kts | 171° |
| 2026-05-05 16:45 | 0.38499 | -78.56538 | 35252 ft | 469 kts | 170° |
| 2026-05-05 16:46 | 0.32030 | -78.55711 | 35254 ft | 467 kts | 171° |
| 2026-05-05 16:46 | 0.25582 | -78.54887 | 35271 ft | 466 kts | 171° |
| 2026-05-05 16:47 | 0.19173 | -78.54068 | 35263 ft | 467 kts | 171° |
| 2026-05-05 16:47 | 0.12731 | -78.53244 | 35280 ft | 467 kts | 171° |
| 2026-05-05 16:48 | 0.06285 | -78.52420 | 35278 ft | 467 kts | 171° |
| 2026-05-05 16:48 | -0.00162 | -78.51596 | 35285 ft | 467 kts | 171° |
| 2026-05-05 16:49 | -0.06652 | -78.51078 | 35311 ft | 469 kts | 176° |
| 2026-05-05 16:49 | -0.13184 | -78.50793 | 35301 ft | 470 kts | 175° |
| 2026-05-05 16:50 | -0.19706 | -78.50468 | 35297 ft | 469 kts | 175° |
| 2026-05-05 16:50 | -0.26231 | -78.50142 | 35302 ft | 470 kts | 174° |
| 2026-05-05 16:51 | -0.32718 | -78.49817 | 35311 ft | 469 kts | 174° |
| 2026-05-05 16:51 | -0.39234 | -78.49489 | 35321 ft | 470 kts | 175° |
| 2026-05-05 16:52 | -0.45764 | -78.49162 | 35315 ft | 469 kts | 174° |
| 2026-05-05 16:52 | -0.52285 | -78.48834 | 35330 ft | 470 kts | 174° |
| 2026-05-05 16:53 | -0.58806 | -78.48508 | 35324 ft | 469 kts | 175° |
| 2026-05-05 16:53 | -0.65322 | -78.48181 | 35328 ft | 469 kts | 174° |
| 2026-05-05 16:54 | -0.71849 | -78.47853 | 35419 ft | 470 kts | 175° |
| 2026-05-05 16:54 | -0.78366 | -78.47527 | 35442 ft | 468 kts | 174° |
| 2026-05-05 16:55 | -0.84869 | -78.47201 | 35461 ft | 468 kts | 175° |
| 2026-05-05 16:55 | -0.91379 | -78.46873 | 35478 ft | 468 kts | 175° |
| 2026-05-05 16:56 | -0.97889 | -78.46547 | 35444 ft | 469 kts | 174° |
| 2026-05-05 16:56 | -1.04359 | -78.46223 | 35326 ft | 469 kts | 174° |
| 2026-05-05 16:57 | -1.10862 | -78.45897 | 35306 ft | 469 kts | 174° |
| 2026-05-05 16:57 | -1.17375 | -78.45576 | 35302 ft | 468 kts | 175° |
| 2026-05-05 16:58 | -1.23870 | -78.45256 | 35255 ft | 466 kts | 175° |
| 2026-05-05 16:58 | -1.30368 | -78.44934 | 35290 ft | 467 kts | 175° |
| 2026-05-05 16:59 | -1.36807 | -78.44616 | 35255 ft | 467 kts | 175° |
| 2026-05-05 16:59 | -1.43305 | -78.44295 | 35301 ft | 467 kts | 175° |
| 2026-05-05 17:00 | -1.49801 | -78.43974 | 35337 ft | 467 kts | 175° |
| 2026-05-05 17:00 | -1.55197 | -78.43708 | 35366 ft | 467 kts | 175° |
| 2026-05-05 17:01 | -1.61683 | -78.43387 | 35386 ft | 467 kts | 175° |
| 2026-05-05 17:01 | -1.68179 | -78.43067 | 35321 ft | 466 kts | 175° |
| 2026-05-05 17:02 | -1.74675 | -78.42746 | 35354 ft | 468 kts | 175° |
| 2026-05-05 17:02 | -1.81170 | -78.42425 | 35299 ft | 467 kts | 175° |
| 2026-05-05 17:03 | -1.87651 | -78.42105 | 35237 ft | 467 kts | 175° |
| 2026-05-05 17:03 | -1.94102 | -78.41786 | 35212 ft | 468 kts | 175° |
| 2026-05-05 17:04 | -2.00624 | -78.41464 | 35223 ft | 469 kts | 175° |
| 2026-05-05 17:04 | -2.07145 | -78.41142 | 35215 ft | 468 kts | 175° |
| 2026-05-05 17:05 | -2.13639 | -78.40821 | 35220 ft | 469 kts | 175° |
| 2026-05-05 17:05 | -2.20155 | -78.40499 | 35227 ft | 469 kts | 175° |
| 2026-05-05 17:06 | -2.26677 | -78.40176 | 35227 ft | 468 kts | 175° |
| 2026-05-05 17:06 | -2.33162 | -78.39856 | 35226 ft | 469 kts | 175° |
| 2026-05-05 17:07 | -2.39663 | -78.39534 | 35248 ft | 469 kts | 175° |
| 2026-05-05 17:07 | -2.46183 | -78.39212 | 35248 ft | 468 kts | 175° |
| 2026-05-05 17:08 | -2.52707 | -78.38890 | 35257 ft | 469 kts | 175° |
| 2026-05-05 17:08 | -2.59208 | -78.38568 | 35264 ft | 469 kts | 175° |
| 2026-05-05 17:09 | -2.65739 | -78.38245 | 35264 ft | 469 kts | 175° |
| 2026-05-05 17:09 | -2.72268 | -78.37922 | 35260 ft | 470 kts | 175° |
| 2026-05-05 17:10 | -2.78753 | -78.37602 | 35265 ft | 470 kts | 175° |
| 2026-05-05 17:10 | -2.85277 | -78.37279 | 35269 ft | 470 kts | 175° |
| 2026-05-05 17:11 | -2.91815 | -78.36955 | 35262 ft | 470 kts | 175° |
| 2026-05-05 17:11 | -2.98342 | -78.36632 | 35263 ft | 469 kts | 175° |
| 2026-05-05 17:12 | -3.04872 | -78.36309 | 35271 ft | 470 kts | 175° |
| 2026-05-05 17:12 | -3.11353 | -78.35989 | 35268 ft | 470 kts | 175° |
| 2026-05-05 17:13 | -3.17887 | -78.35665 | 35244 ft | 470 kts | 175° |
| 2026-05-05 17:13 | -3.24420 | -78.35342 | 35235 ft | 470 kts | 175° |
| 2026-05-05 17:14 | -3.30956 | -78.35018 | 35212 ft | 470 kts | 175° |
| 2026-05-05 17:14 | -3.37482 | -78.34695 | 35206 ft | 471 kts | 175° |
| 2026-05-05 17:15 | -3.44038 | -78.34370 | 35190 ft | 471 kts | 175° |
| 2026-05-05 17:15 | -3.50593 | -78.34048 | 35193 ft | 471 kts | 175° |
| 2026-05-05 17:16 | -3.57147 | -78.33731 | 35194 ft | 471 kts | 175° |
| 2026-05-05 17:16 | -3.63651 | -78.33415 | 35169 ft | 471 kts | 175° |
| 2026-05-05 17:17 | -3.70211 | -78.33097 | 35174 ft | 471 kts | 175° |
| 2026-05-05 17:17 | -3.76763 | -78.32779 | 35140 ft | 471 kts | 175° |
| 2026-05-05 17:18 | -3.83331 | -78.32461 | 35147 ft | 473 kts | 175° |
| 2026-05-05 17:18 | -3.89886 | -78.32142 | 35137 ft | 472 kts | 175° |
| 2026-05-05 17:19 | -3.96407 | -78.31826 | 35144 ft | 472 kts | 175° |
| 2026-05-05 17:19 | -4.02977 | -78.31507 | 35139 ft | 472 kts | 175° |
| 2026-05-05 17:20 | -4.09534 | -78.31189 | 35124 ft | 472 kts | 175° |
| 2026-05-05 17:20 | -4.16097 | -78.30870 | 35128 ft | 472 kts | 175° |
| 2026-05-05 17:21 | -4.22664 | -78.30551 | 35121 ft | 472 kts | 175° |
| 2026-05-05 17:22 | -4.32464 | -78.30075 | 35121 ft | 472 kts | 175° |
| 2026-05-05 17:22 | -4.39020 | -78.29756 | 35104 ft | 472 kts | 175° |
| 2026-05-05 17:23 | -4.45583 | -78.29437 | 35107 ft | 472 kts | 175° |
| 2026-05-05 17:23 | -4.52155 | -78.29118 | 35093 ft | 473 kts | 175° |
| 2026-05-05 17:24 | -4.58740 | -78.28798 | 35100 ft | 474 kts | 175° |
| 2026-05-05 17:24 | -4.65330 | -78.28477 | 35095 ft | 474 kts | 175° |
| 2026-05-05 17:25 | -4.71880 | -78.28159 | 35105 ft | 474 kts | 175° |
| 2026-05-05 17:25 | -4.78480 | -78.27838 | 35395 ft | 474 kts | 176° |
| 2026-05-05 17:25 | -4.81769 | -78.27679 | 35641 ft | 473 kts | 176° |
| 2026-05-05 17:26 | -4.85043 | -78.27519 | 35896 ft | 472 kts | 176° |
| 2026-05-05 17:26 | -4.88322 | -78.27360 | 36085 ft | 471 kts | 176° |
| 2026-05-05 17:26 | -4.91606 | -78.27199 | 36114 ft | 471 kts | 176° |
| 2026-05-05 17:27 | -4.98131 | -78.26881 | 36098 ft | 468 kts | 176° |
| 2026-05-05 17:27 | -5.04653 | -78.26564 | 36099 ft | 469 kts | 176° |
| 2026-05-05 17:28 | -5.11157 | -78.26247 | 36103 ft | 469 kts | 176° |
| 2026-05-05 17:28 | -5.17639 | -78.25932 | 36103 ft | 469 kts | 176° |
| 2026-05-05 17:29 | -5.24163 | -78.25614 | 36105 ft | 470 kts | 176° |
| 2026-05-05 17:29 | -5.30719 | -78.25295 | 36118 ft | 473 kts | 176° |
| 2026-05-05 17:30 | -5.37275 | -78.24975 | 36167 ft | 473 kts | 176° |
| 2026-05-05 17:30 | -5.43873 | -78.24654 | 36144 ft | 473 kts | 176° |
| 2026-05-05 17:31 | -5.50441 | -78.24334 | 36138 ft | 472 kts | 176° |
| 2026-05-05 17:31 | -5.56964 | -78.24016 | 36166 ft | 474 kts | 176° |
| 2026-05-05 17:32 | -5.63525 | -78.23695 | 36163 ft | 471 kts | 176° |
| 2026-05-05 17:32 | -5.70075 | -78.23376 | 36184 ft | 471 kts | 176° |
| 2026-05-05 17:33 | -5.76623 | -78.23056 | 36182 ft | 472 kts | 176° |
| 2026-05-05 17:33 | -5.83175 | -78.22736 | 36184 ft | 471 kts | 177° |
| 2026-05-05 17:34 | -5.89725 | -78.22416 | 36193 ft | 471 kts | 176° |
| 2026-05-05 17:34 | -5.96275 | -78.22096 | 36191 ft | 471 kts | 177° |
| 2026-05-05 17:35 | -6.02788 | -78.21779 | 36183 ft | 471 kts | 177° |
| 2026-05-05 17:35 | -6.09345 | -78.21458 | 36196 ft | 473 kts | 177° |
| 2026-05-05 17:36 | -6.15921 | -78.21137 | 36194 ft | 472 kts | 177° |
| 2026-05-05 17:36 | -6.22477 | -78.20816 | 36197 ft | 472 kts | 177° |
| 2026-05-05 17:37 | -6.29055 | -78.20495 | 36185 ft | 473 kts | 177° |
| 2026-05-05 17:37 | -6.35606 | -78.20175 | 36190 ft | 472 kts | 177° |
| 2026-05-05 17:38 | -6.42145 | -78.19855 | 36178 ft | 475 kts | 177° |
| 2026-05-05 17:38 | -6.48772 | -78.19530 | 36193 ft | 477 kts | 177° |
| 2026-05-05 17:39 | -6.55376 | -78.19207 | 36188 ft | 472 kts | 177° |
| 2026-05-05 17:39 | -6.61968 | -78.18885 | 36187 ft | 476 kts | 177° |
| 2026-05-05 17:40 | -6.68588 | -78.18560 | 36179 ft | 476 kts | 177° |
| 2026-05-05 17:40 | -6.75145 | -78.18237 | 36175 ft | 475 kts | 177° |
| 2026-05-05 17:41 | -6.81772 | -78.17911 | 36180 ft | 479 kts | 177° |
| 2026-05-05 17:41 | -6.88416 | -78.17583 | 36159 ft | 477 kts | 177° |
| 2026-05-05 17:42 | -6.95028 | -78.17257 | 36161 ft | 476 kts | 177° |
| 2026-05-05 17:42 | -7.01673 | -78.16929 | 36155 ft | 479 kts | 177° |
| 2026-05-05 17:43 | -7.08305 | -78.16602 | 36177 ft | 475 kts | 177° |
| 2026-05-05 17:43 | -7.14862 | -78.16279 | 36158 ft | 476 kts | 177° |
| 2026-05-05 17:44 | -7.21503 | -78.15951 | 36138 ft | 477 kts | 177° |
| 2026-05-05 17:44 | -7.28128 | -78.15624 | 36117 ft | 475 kts | 177° |
| 2026-05-05 17:45 | -7.34731 | -78.15298 | 36095 ft | 477 kts | 177° |
| 2026-05-05 17:45 | -7.41382 | -78.14969 | 36091 ft | 477 kts | 177° |
| 2026-05-05 17:46 | -7.47995 | -78.14643 | 36083 ft | 475 kts | 178° |
| 2026-05-05 17:46 | -7.54618 | -78.14316 | 36081 ft | 477 kts | 178° |
| 2026-05-05 17:47 | -7.61204 | -78.13989 | 36085 ft | 477 kts | 178° |
| 2026-05-05 17:47 | -7.67812 | -78.13660 | 36079 ft | 475 kts | 178° |
| 2026-05-05 17:48 | -7.74431 | -78.13330 | 36087 ft | 477 kts | 178° |
| 2026-05-05 17:48 | -7.81074 | -78.12999 | 36089 ft | 476 kts | 178° |
| 2026-05-05 17:49 | -7.87666 | -78.12671 | 36104 ft | 475 kts | 178° |
| 2026-05-05 17:49 | -7.94288 | -78.12341 | 36109 ft | 478 kts | 178° |
| 2026-05-05 17:50 | -7.99806 | -78.12066 | 36108 ft | 476 kts | 177° |
| 2026-05-05 17:50 | -8.07487 | -78.11684 | 36126 ft | 476 kts | 178° |
| 2026-05-05 17:51 | -8.13026 | -78.11407 | 36115 ft | 477 kts | 178° |
| 2026-05-05 17:51 | -8.19660 | -78.11076 | 36120 ft | 476 kts | 177° |
| 2026-05-05 17:52 | -8.26252 | -78.10748 | 36132 ft | 475 kts | 178° |
| 2026-05-05 17:52 | -8.32820 | -78.10421 | 36139 ft | 476 kts | 178° |
| 2026-05-05 17:53 | -8.39426 | -78.10091 | 36155 ft | 475 kts | 178° |
| 2026-05-05 17:53 | -8.46029 | -78.09762 | 36164 ft | 475 kts | 178° |
| 2026-05-05 17:54 | -8.52640 | -78.09432 | 36173 ft | 476 kts | 178° |
| 2026-05-05 17:54 | -8.59242 | -78.09102 | 36165 ft | 474 kts | 178° |
| 2026-05-05 17:55 | -8.65829 | -78.08773 | 36176 ft | 474 kts | 178° |
| 2026-05-05 17:55 | -8.72380 | -78.08446 | 36185 ft | 474 kts | 178° |
| 2026-05-05 17:56 | -8.78974 | -78.08116 | 36190 ft | 474 kts | 178° |
| 2026-05-05 17:56 | -8.85552 | -78.07788 | 36185 ft | 474 kts | 178° |
| 2026-05-05 17:57 | -8.92137 | -78.07459 | 36193 ft | 473 kts | 178° |
| 2026-05-05 17:57 | -8.98714 | -78.07129 | 36181 ft | 472 kts | 178° |
| 2026-05-05 17:58 | -9.05283 | -78.06801 | 36162 ft | 473 kts | 178° |
| 2026-05-05 17:58 | -9.11841 | -78.06473 | 36158 ft | 473 kts | 178° |
| 2026-05-05 17:59 | -9.18376 | -78.06145 | 36154 ft | 472 kts | 178° |
| 2026-05-05 17:59 | -9.24948 | -78.05816 | 36117 ft | 473 kts | 178° |
| 2026-05-05 18:00 | -9.31523 | -78.05487 | 36111 ft | 473 kts | 178° |
| 2026-05-05 18:00 | -9.38095 | -78.05157 | 36146 ft | 474 kts | 178° |
| 2026-05-05 18:01 | -9.44631 | -78.04829 | 36135 ft | 473 kts | 178° |
| 2026-05-05 18:01 | -9.51254 | -78.04497 | 36127 ft | 473 kts | 178° |
| 2026-05-05 18:02 | -9.57789 | -78.04169 | 36141 ft | 473 kts | 178° |
| 2026-05-05 18:02 | -9.64356 | -78.03840 | 36109 ft | 474 kts | 178° |
| 2026-05-05 18:03 | -9.70954 | -78.03508 | 36122 ft | 476 kts | 178° |
| 2026-05-05 18:03 | -9.77567 | -78.03176 | 36094 ft | 475 kts | 178° |
| 2026-05-05 18:04 | -9.84167 | -78.02844 | 36177 ft | 476 kts | 178° |
| 2026-05-05 18:04 | -9.87473 | -78.02678 | 36406 ft | 475 kts | 178° |
| 2026-05-05 18:04 | -9.90773 | -78.02512 | 36649 ft | 474 kts | 179° |
| 2026-05-05 18:04 | -9.94064 | -78.02346 | 36860 ft | 473 kts | 179° |
| 2026-05-05 18:05 | -9.97344 | -78.02181 | 37067 ft | 472 kts | 179° |
| 2026-05-05 18:05 | -10.03896 | -78.01851 | 37054 ft | 469 kts | 179° |
| 2026-05-05 18:06 | -10.10407 | -78.01524 | 37045 ft | 470 kts | 179° |
| 2026-05-05 18:06 | -10.16891 | -78.01192 | 37045 ft | 470 kts | 177° |
| 2026-05-05 18:06 | -10.20098 | -78.00577 | 37001 ft | 471 kts | 161° |
| 2026-05-05 18:07 | -10.23099 | -77.99249 | 37048 ft | 471 kts | 157° |
| 2026-05-05 18:07 | -10.29081 | -77.96448 | 37013 ft | 474 kts | 156° |
| 2026-05-05 18:08 | -10.35034 | -77.93566 | 37024 ft | 475 kts | 155° |
| 2026-05-05 18:08 | -10.40989 | -77.90659 | 37024 ft | 475 kts | 155° |
| 2026-05-05 18:09 | -10.46945 | -77.87748 | 37030 ft | 475 kts | 155° |
| 2026-05-05 18:09 | -10.52902 | -77.84835 | 37002 ft | 475 kts | 155° |
| 2026-05-05 18:10 | -10.58845 | -77.81929 | 37000 ft | 475 kts | 155° |
| 2026-05-05 18:10 | -10.64805 | -77.79012 | 36991 ft | 475 kts | 155° |
| 2026-05-05 18:11 | -10.70715 | -77.76119 | 36995 ft | 475 kts | 155° |
| 2026-05-05 18:11 | -10.76678 | -77.73198 | 36990 ft | 476 kts | 155° |
| 2026-05-05 18:12 | -10.82635 | -77.70279 | 36968 ft | 476 kts | 155° |
| 2026-05-05 18:12 | -10.88597 | -77.67356 | 36968 ft | 476 kts | 155° |
| 2026-05-05 18:13 | -10.94568 | -77.64428 | 36973 ft | 476 kts | 155° |
| 2026-05-05 18:13 | -11.00482 | -77.61526 | 36972 ft | 476 kts | 155° |
| 2026-05-05 18:14 | -11.06443 | -77.58600 | 36959 ft | 476 kts | 155° |
| 2026-05-05 18:14 | -11.12414 | -77.55668 | 36960 ft | 476 kts | 155° |
| 2026-05-05 18:15 | -11.18375 | -77.52739 | 36959 ft | 476 kts | 155° |
| 2026-05-05 18:15 | -11.24336 | -77.49809 | 36977 ft | 476 kts | 155° |
| 2026-05-05 18:16 | -11.30308 | -77.46874 | 36977 ft | 476 kts | 155° |
| 2026-05-05 18:16 | -11.36279 | -77.43938 | 36958 ft | 476 kts | 155° |
| 2026-05-05 18:17 | -11.42240 | -77.41006 | 36959 ft | 476 kts | 155° |
| 2026-05-05 18:17 | -11.48156 | -77.38093 | 36949 ft | 476 kts | 155° |
| 2026-05-05 18:18 | -11.54116 | -77.35158 | 36963 ft | 476 kts | 155° |
| 2026-05-05 18:18 | -11.60085 | -77.32218 | 36963 ft | 476 kts | 155° |
| 2026-05-05 18:19 | -11.66049 | -77.29278 | 36952 ft | 476 kts | 155° |
| 2026-05-05 18:19 | -11.71999 | -77.26344 | 36952 ft | 476 kts | 155° |
| 2026-05-05 18:20 | -11.77974 | -77.23397 | 36945 ft | 477 kts | 155° |
| 2026-05-05 18:20 | -11.83947 | -77.20448 | 36955 ft | 477 kts | 155° |
| 2026-05-05 18:21 | -11.89879 | -77.17519 | 36943 ft | 476 kts | 155° |
| 2026-05-05 18:21 | -11.95851 | -77.14568 | 36939 ft | 477 kts | 155° |
| 2026-05-05 18:22 | -12.01824 | -77.11615 | 36942 ft | 477 kts | 155° |
| 2026-05-05 18:22 | -12.04876 | -77.10327 | 36917 ft | 473 kts | 167° |
| 2026-05-05 18:22 | -12.08062 | -77.09514 | 36958 ft | 473 kts | 167° |
| 2026-05-05 18:23 | -12.14428 | -77.07811 | 36941 ft | 475 kts | 167° |
| 2026-05-05 18:23 | -12.20846 | -77.06121 | 36938 ft | 476 kts | 167° |
| 2026-05-05 18:24 | -12.27251 | -77.04436 | 36943 ft | 475 kts | 167° |
| 2026-05-05 18:24 | -12.33658 | -77.02751 | 36943 ft | 475 kts | 167° |
| 2026-05-05 18:25 | -12.40057 | -77.01066 | 36943 ft | 475 kts | 167° |
| 2026-05-05 18:25 | -12.46468 | -76.99378 | 36958 ft | 476 kts | 167° |
| 2026-05-05 18:26 | -12.52888 | -76.97686 | 36952 ft | 477 kts | 167° |
| 2026-05-05 18:26 | -12.59270 | -76.96003 | 36949 ft | 476 kts | 167° |
| 2026-05-05 18:27 | -12.65683 | -76.94311 | 36952 ft | 477 kts | 167° |
| 2026-05-05 18:27 | -12.72102 | -76.92617 | 36950 ft | 477 kts | 167° |
| 2026-05-05 18:28 | -12.81741 | -76.90072 | 36952 ft | 477 kts | 167° |
| 2026-05-05 18:28 | -12.88172 | -76.88372 | 36955 ft | 478 kts | 167° |
| 2026-05-05 18:29 | -12.94626 | -76.86666 | 36952 ft | 478 kts | 167° |
| 2026-05-05 18:29 | -13.01063 | -76.84963 | 36952 ft | 477 kts | 167° |
| 2026-05-05 18:30 | -13.07455 | -76.83271 | 36958 ft | 477 kts | 167° |
| 2026-05-05 18:30 | -13.13877 | -76.81570 | 36958 ft | 477 kts | 167° |
| 2026-05-05 18:31 | -13.20321 | -76.79863 | 36960 ft | 479 kts | 167° |
| 2026-05-05 18:31 | -13.26771 | -76.78152 | 36954 ft | 479 kts | 167° |
| 2026-05-05 18:32 | -13.33225 | -76.76440 | 36955 ft | 479 kts | 167° |
| 2026-05-05 18:32 | -13.39670 | -76.74730 | 36954 ft | 479 kts | 167° |
| 2026-05-05 18:33 | -13.46117 | -76.73018 | 36956 ft | 479 kts | 167° |
| 2026-05-05 18:33 | -13.52571 | -76.71303 | 36953 ft | 480 kts | 167° |
| 2026-05-05 18:34 | -13.59034 | -76.69585 | 36959 ft | 481 kts | 167° |
| 2026-05-05 18:34 | -13.65511 | -76.67862 | 36959 ft | 480 kts | 167° |
| 2026-05-05 18:35 | -13.71938 | -76.66151 | 36958 ft | 480 kts | 167° |
| 2026-05-05 18:35 | -13.78421 | -76.64425 | 36953 ft | 480 kts | 167° |
| 2026-05-05 18:36 | -13.84889 | -76.62701 | 36962 ft | 480 kts | 167° |
| 2026-05-05 18:36 | -13.91347 | -76.60979 | 36958 ft | 482 kts | 167° |
| 2026-05-05 18:37 | -13.97846 | -76.59246 | 36954 ft | 482 kts | 167° |
| 2026-05-05 18:37 | -14.04348 | -76.57510 | 36958 ft | 482 kts | 167° |
| 2026-05-05 18:38 | -14.10830 | -76.55779 | 36955 ft | 482 kts | 167° |
| 2026-05-05 18:38 | -14.17331 | -76.54042 | 36958 ft | 482 kts | 167° |
| 2026-05-05 18:39 | -14.22737 | -76.52597 | 36957 ft | 483 kts | 167° |
| 2026-05-05 18:39 | -14.29255 | -76.50839 | 36960 ft | 484 kts | 167° |
| 2026-05-05 18:40 | -14.35757 | -76.49071 | 36958 ft | 483 kts | 167° |
| 2026-05-05 18:40 | -14.42262 | -76.47302 | 36960 ft | 483 kts | 167° |
| 2026-05-05 18:41 | -14.48764 | -76.45534 | 36960 ft | 483 kts | 167° |
| 2026-05-05 18:41 | -14.55256 | -76.43767 | 36962 ft | 483 kts | 167° |
| 2026-05-05 18:42 | -14.61786 | -76.41988 | 36963 ft | 485 kts | 167° |
| 2026-05-05 18:42 | -14.68265 | -76.40222 | 36960 ft | 485 kts | 167° |
| 2026-05-05 18:43 | -14.74803 | -76.38439 | 36964 ft | 485 kts | 167° |
| 2026-05-05 18:43 | -14.81324 | -76.36660 | 36962 ft | 485 kts | 167° |
| 2026-05-05 18:44 | -14.87850 | -76.34878 | 36960 ft | 485 kts | 167° |
| 2026-05-05 18:44 | -14.94375 | -76.33096 | 36960 ft | 485 kts | 167° |
| 2026-05-05 18:45 | -15.00898 | -76.31312 | 36960 ft | 485 kts | 167° |
| 2026-05-05 18:45 | -15.07413 | -76.29530 | 36960 ft | 485 kts | 167° |
| 2026-05-05 18:46 | -15.13904 | -76.27753 | 36963 ft | 485 kts | 167° |
| 2026-05-05 18:46 | -15.20427 | -76.25967 | 36964 ft | 485 kts | 167° |
| 2026-05-05 18:47 | -15.26961 | -76.24176 | 36963 ft | 486 kts | 167° |
| 2026-05-05 18:47 | -15.33496 | -76.22384 | 36960 ft | 486 kts | 167° |
| 2026-05-05 18:48 | -15.40043 | -76.20587 | 36960 ft | 487 kts | 167° |
| 2026-05-05 18:48 | -15.46593 | -76.18788 | 36961 ft | 487 kts | 167° |
| 2026-05-05 18:49 | -15.53092 | -76.17002 | 36964 ft | 487 kts | 167° |
| 2026-05-05 18:49 | -15.59644 | -76.15201 | 36968 ft | 488 kts | 167° |
| 2026-05-05 18:50 | -15.66213 | -76.13393 | 36963 ft | 488 kts | 167° |
| 2026-05-05 18:50 | -15.72779 | -76.11586 | 36963 ft | 488 kts | 167° |
| 2026-05-05 18:51 | -15.79326 | -76.09782 | 36965 ft | 488 kts | 167° |
| 2026-05-05 18:51 | -15.85887 | -76.07973 | 36963 ft | 488 kts | 167° |
| 2026-05-05 18:52 | -15.92449 | -76.06163 | 36966 ft | 488 kts | 167° |
| 2026-05-05 18:52 | -15.98993 | -76.04356 | 36967 ft | 489 kts | 167° |
| 2026-05-05 18:53 | -16.05559 | -76.02542 | 36969 ft | 489 kts | 167° |
| 2026-05-05 18:53 | -16.12133 | -76.00725 | 36967 ft | 489 kts | 167° |
| 2026-05-05 18:54 | -16.18710 | -75.98905 | 36967 ft | 489 kts | 167° |
| 2026-05-05 18:54 | -16.25283 | -75.97086 | 36971 ft | 490 kts | 167° |
| 2026-05-05 18:55 | -16.31879 | -75.95258 | 36965 ft | 490 kts | 168° |
| 2026-05-05 18:55 | -16.38476 | -75.93430 | 36969 ft | 490 kts | 167° |
| 2026-05-05 18:56 | -16.45068 | -75.91601 | 36969 ft | 490 kts | 167° |
| 2026-05-05 18:56 | -16.51602 | -75.89787 | 36969 ft | 490 kts | 167° |
| 2026-05-05 18:57 | -16.58206 | -75.87953 | 36961 ft | 490 kts | 168° |
| 2026-05-05 18:57 | -16.64829 | -75.86111 | 36972 ft | 492 kts | 168° |
| 2026-05-05 18:58 | -16.71398 | -75.84284 | 36975 ft | 492 kts | 168° |
| 2026-05-05 18:58 | -16.77993 | -75.82448 | 36974 ft | 491 kts | 168° |
| 2026-05-05 18:59 | -16.84614 | -75.80603 | 36966 ft | 491 kts | 168° |
| 2026-05-05 18:59 | -16.91220 | -75.78762 | 36968 ft | 492 kts | 168° |
| 2026-05-05 19:00 | -16.97797 | -75.76926 | 36971 ft | 492 kts | 168° |
| 2026-05-05 19:00 | -17.04411 | -75.75080 | 36966 ft | 492 kts | 168° |
| 2026-05-05 19:01 | -17.11034 | -75.73229 | 36964 ft | 492 kts | 168° |
| 2026-05-05 19:01 | -17.17648 | -75.71380 | 36963 ft | 492 kts | 168° |
| 2026-05-05 19:02 | -17.24249 | -75.69533 | 36972 ft | 492 kts | 168° |
| 2026-05-05 19:02 | -17.30833 | -75.67689 | 36971 ft | 494 kts | 168° |
| 2026-05-05 19:03 | -17.37463 | -75.65831 | 36965 ft | 493 kts | 168° |
| 2026-05-05 19:03 | -17.44110 | -75.63967 | 36967 ft | 493 kts | 168° |
| 2026-05-05 19:04 | -17.50738 | -75.62107 | 36966 ft | 493 kts | 168° |
| 2026-05-05 19:04 | -17.57369 | -75.60245 | 36974 ft | 494 kts | 168° |
| 2026-05-05 19:05 | -17.64026 | -75.58373 | 36969 ft | 495 kts | 168° |
| 2026-05-05 19:05 | -17.70667 | -75.56505 | 36966 ft | 495 kts | 168° |
| 2026-05-05 19:06 | -17.77328 | -75.54630 | 36966 ft | 495 kts | 168° |
| 2026-05-05 19:06 | -17.83987 | -75.52754 | 36966 ft | 495 kts | 168° |
| 2026-05-05 19:07 | -17.90601 | -75.50890 | 36975 ft | 495 kts | 168° |
| 2026-05-05 19:07 | -17.97258 | -75.49011 | 36965 ft | 496 kts | 168° |
| 2026-05-05 19:08 | -18.03935 | -75.47126 | 36964 ft | 496 kts | 168° |
| 2026-05-05 19:08 | -18.10607 | -75.45240 | 36964 ft | 496 kts | 168° |
| 2026-05-05 19:09 | -18.17274 | -75.43355 | 36966 ft | 496 kts | 168° |
| 2026-05-05 19:09 | -18.23933 | -75.41470 | 36964 ft | 496 kts | 168° |
| 2026-05-05 19:10 | -18.30547 | -75.39597 | 36963 ft | 495 kts | 168° |
| 2026-05-05 19:10 | -18.37201 | -75.37649 | 36963 ft | 496 kts | 167° |
| 2026-05-05 19:11 | -18.43821 | -75.35656 | 36963 ft | 496 kts | 167° |
| 2026-05-05 19:11 | -18.50462 | -75.33661 | 36963 ft | 496 kts | 167° |
| 2026-05-05 19:12 | -18.57105 | -75.31665 | 36967 ft | 496 kts | 167° |
| 2026-05-05 19:12 | -18.63749 | -75.29667 | 36964 ft | 497 kts | 167° |
| 2026-05-05 19:13 | -18.70391 | -75.27668 | 36967 ft | 497 kts | 167° |
| 2026-05-05 19:13 | -18.77039 | -75.25665 | 36966 ft | 497 kts | 167° |
| 2026-05-05 19:14 | -18.83686 | -75.23661 | 36966 ft | 497 kts | 167° |
| 2026-05-05 19:14 | -18.90285 | -75.21670 | 36970 ft | 498 kts | 167° |
| 2026-05-05 19:15 | -18.96951 | -75.19657 | 36966 ft | 498 kts | 167° |
| 2026-05-05 19:15 | -19.03612 | -75.17644 | 36966 ft | 498 kts | 167° |
| 2026-05-05 19:16 | -19.10293 | -75.15623 | 36963 ft | 498 kts | 167° |
| 2026-05-05 19:16 | -19.16904 | -75.13621 | 36963 ft | 498 kts | 167° |
| 2026-05-05 19:17 | -19.23574 | -75.11600 | 36967 ft | 499 kts | 167° |
| 2026-05-05 19:17 | -19.30244 | -75.09578 | 36968 ft | 499 kts | 167° |
| 2026-05-05 19:18 | -19.36915 | -75.07553 | 36971 ft | 499 kts | 167° |
| 2026-05-05 19:18 | -19.43581 | -75.05528 | 36964 ft | 498 kts | 167° |
| 2026-05-05 19:19 | -19.50253 | -75.03500 | 36968 ft | 498 kts | 167° |
| 2026-05-05 19:19 | -19.56876 | -75.01484 | 36968 ft | 499 kts | 167° |
| 2026-05-05 19:20 | -19.63536 | -74.99456 | 36971 ft | 499 kts | 167° |
| 2026-05-05 19:20 | -19.70209 | -74.97422 | 36976 ft | 499 kts | 167° |
| 2026-05-05 19:21 | -19.76888 | -74.95384 | 36975 ft | 499 kts | 167° |
| 2026-05-05 19:21 | -19.83559 | -74.93348 | 36979 ft | 499 kts | 168° |
| 2026-05-05 19:22 | -19.90229 | -74.91309 | 36975 ft | 500 kts | 168° |
| 2026-05-05 19:22 | -19.96866 | -74.89279 | 36978 ft | 500 kts | 168° |
| 2026-05-05 19:23 | -20.03555 | -74.87231 | 36966 ft | 499 kts | 168° |
| 2026-05-05 19:23 | -20.10233 | -74.85185 | 36983 ft | 500 kts | 167° |
| 2026-05-05 19:24 | -20.16916 | -74.83135 | 36975 ft | 500 kts | 168° |
| 2026-05-05 19:24 | -20.23611 | -74.81080 | 36972 ft | 500 kts | 168° |
| 2026-05-05 19:25 | -20.30270 | -74.79034 | 36970 ft | 500 kts | 168° |
| 2026-05-05 19:25 | -20.36953 | -74.76979 | 36976 ft | 500 kts | 168° |
| 2026-05-05 19:26 | -20.43652 | -74.74917 | 36976 ft | 500 kts | 168° |
| 2026-05-05 19:26 | -20.50318 | -74.72864 | 36980 ft | 501 kts | 168° |
| 2026-05-05 19:27 | -20.57028 | -74.70794 | 36977 ft | 502 kts | 168° |
| 2026-05-05 19:27 | -20.63728 | -74.68727 | 36978 ft | 502 kts | 168° |
| 2026-05-05 19:28 | -20.70441 | -74.66653 | 36976 ft | 502 kts | 168° |
| 2026-05-05 19:28 | -20.77145 | -74.64580 | 36989 ft | 502 kts | 168° |
| 2026-05-05 19:29 | -20.82714 | -74.62857 | 36978 ft | 503 kts | 168° |
| 2026-05-05 19:29 | -20.89438 | -74.60774 | 36979 ft | 503 kts | 168° |
| 2026-05-05 19:30 | -20.96162 | -74.58690 | 36981 ft | 503 kts | 168° |
| 2026-05-05 19:30 | -21.02882 | -74.56605 | 36983 ft | 503 kts | 168° |
| 2026-05-05 19:31 | -21.09590 | -74.54522 | 37000 ft | 503 kts | 168° |
| 2026-05-05 19:31 | -21.16309 | -74.52433 | 36982 ft | 503 kts | 168° |
| 2026-05-05 19:32 | -21.23029 | -74.50339 | 36983 ft | 503 kts | 168° |
| 2026-05-05 19:32 | -21.29758 | -74.48242 | 36982 ft | 503 kts | 168° |
| 2026-05-05 19:33 | -21.36470 | -74.46148 | 36982 ft | 503 kts | 168° |
| 2026-05-05 19:33 | -21.43189 | -74.44050 | 36983 ft | 503 kts | 168° |
| 2026-05-05 19:34 | -21.49917 | -74.41948 | 36985 ft | 503 kts | 168° |
| 2026-05-05 19:35 | -21.59956 | -74.38806 | 36988 ft | 503 kts | 168° |
| 2026-05-05 19:35 | -21.66684 | -74.36699 | 36988 ft | 503 kts | 168° |
| 2026-05-05 19:36 | -21.73405 | -74.34591 | 36994 ft | 503 kts | 169° |
| 2026-05-05 19:36 | -21.80115 | -74.32485 | 36987 ft | 502 kts | 169° |
| 2026-05-05 19:37 | -21.86826 | -74.30376 | 36988 ft | 502 kts | 169° |
| 2026-05-05 19:37 | -21.93531 | -74.28267 | 36987 ft | 502 kts | 169° |
| 2026-05-05 19:38 | -22.00209 | -74.26165 | 36993 ft | 502 kts | 169° |
| 2026-05-05 19:38 | -22.06909 | -74.24053 | 36995 ft | 503 kts | 169° |
| 2026-05-05 19:39 | -22.13637 | -74.21931 | 36988 ft | 504 kts | 169° |
| 2026-05-05 19:39 | -22.20368 | -74.19805 | 36997 ft | 504 kts | 169° |
| 2026-05-05 19:40 | -22.27099 | -74.17678 | 36995 ft | 504 kts | 169° |
| 2026-05-05 19:40 | -22.33824 | -74.15550 | 37007 ft | 504 kts | 169° |
| 2026-05-05 19:41 | -22.40524 | -74.13428 | 36998 ft | 506 kts | 169° |
| 2026-05-05 19:41 | -22.47285 | -74.11284 | 37004 ft | 506 kts | 169° |
| 2026-05-05 19:42 | -22.54020 | -74.09147 | 37004 ft | 505 kts | 169° |
| 2026-05-05 19:42 | -22.60777 | -74.07000 | 37002 ft | 505 kts | 169° |
| 2026-05-05 19:43 | -22.67537 | -74.04851 | 37000 ft | 506 kts | 169° |
| 2026-05-05 19:43 | -22.74246 | -74.02715 | 37005 ft | 507 kts | 169° |
| 2026-05-05 19:44 | -22.81037 | -74.00551 | 37007 ft | 507 kts | 169° |
| 2026-05-05 19:44 | -22.87798 | -73.98394 | 37006 ft | 505 kts | 169° |
| 2026-05-05 19:45 | -22.94548 | -73.96239 | 37022 ft | 505 kts | 169° |
| 2026-05-05 19:45 | -23.01241 | -73.94099 | 37007 ft | 506 kts | 169° |
| 2026-05-05 19:46 | -23.07993 | -73.91939 | 37007 ft | 506 kts | 169° |
| 2026-05-05 19:46 | -23.14747 | -73.89775 | 37007 ft | 506 kts | 169° |
| 2026-05-05 19:47 | -23.21503 | -73.87609 | 37007 ft | 506 kts | 169° |
| 2026-05-05 19:47 | -23.28244 | -73.85445 | 37008 ft | 506 kts | 170° |
| 2026-05-05 19:48 | -23.34995 | -73.83276 | 37007 ft | 506 kts | 170° |
| 2026-05-05 19:48 | -23.41755 | -73.81101 | 37008 ft | 506 kts | 170° |
| 2026-05-05 19:49 | -23.48508 | -73.78927 | 37007 ft | 506 kts | 170° |
| 2026-05-05 19:49 | -23.55265 | -73.76748 | 37017 ft | 506 kts | 170° |
| 2026-05-05 19:50 | -23.61978 | -73.74582 | 37006 ft | 506 kts | 170° |
| 2026-05-05 19:50 | -23.68732 | -73.72400 | 37009 ft | 506 kts | 170° |
| 2026-05-05 19:51 | -23.75481 | -73.70218 | 37009 ft | 506 kts | 170° |
| 2026-05-05 19:51 | -23.82247 | -73.68027 | 37028 ft | 506 kts | 170° |
| 2026-05-05 19:52 | -23.89011 | -73.65836 | 37005 ft | 507 kts | 170° |
| 2026-05-05 19:52 | -23.95763 | -73.63645 | 37010 ft | 506 kts | 170° |
| 2026-05-05 19:53 | -24.02502 | -73.61458 | 37009 ft | 505 kts | 170° |
| 2026-05-05 19:53 | -24.09245 | -73.59270 | 37006 ft | 505 kts | 170° |
| 2026-05-05 19:54 | -24.15943 | -73.57095 | 37016 ft | 506 kts | 171° |
| 2026-05-05 19:54 | -24.22708 | -73.54896 | 37010 ft | 507 kts | 171° |
| 2026-05-05 19:55 | -24.29474 | -73.52694 | 37013 ft | 507 kts | 171° |
| 2026-05-05 19:55 | -24.36200 | -73.50502 | 37009 ft | 507 kts | 170° |
| 2026-05-05 19:56 | -24.42950 | -73.48300 | 37010 ft | 507 kts | 170° |
| 2026-05-05 19:56 | -24.49711 | -73.46092 | 37005 ft | 507 kts | 170° |
| 2026-05-05 19:57 | -24.56478 | -73.43880 | 37009 ft | 507 kts | 170° |
| 2026-05-05 19:57 | -24.63244 | -73.41665 | 37008 ft | 507 kts | 170° |
| 2026-05-05 19:58 | -24.69995 | -73.39454 | 37011 ft | 507 kts | 170° |
| 2026-05-05 19:58 | -24.76760 | -73.37234 | 37014 ft | 507 kts | 171° |
| 2026-05-05 19:59 | -24.83524 | -73.35013 | 37013 ft | 507 kts | 171° |
| 2026-05-05 19:59 | -24.90278 | -73.32792 | 37012 ft | 507 kts | 171° |
| 2026-05-05 20:00 | -24.97040 | -73.30567 | 37012 ft | 508 kts | 171° |
| 2026-05-05 20:00 | -25.03811 | -73.28335 | 37020 ft | 508 kts | 171° |
| 2026-05-05 20:01 | -25.10539 | -73.26115 | 37018 ft | 508 kts | 171° |
| 2026-05-05 20:01 | -25.17291 | -73.23885 | 37017 ft | 508 kts | 171° |
| 2026-05-05 20:02 | -25.24066 | -73.21645 | 37015 ft | 508 kts | 171° |
| 2026-05-05 20:02 | -25.30838 | -73.19403 | 37038 ft | 508 kts | 171° |
| 2026-05-05 20:03 | -25.37601 | -73.17161 | 37019 ft | 507 kts | 171° |
| 2026-05-05 20:03 | -25.44355 | -73.14920 | 37021 ft | 507 kts | 171° |
| 2026-05-05 20:04 | -25.51115 | -73.12674 | 37014 ft | 507 kts | 171° |
| 2026-05-05 20:04 | -25.57888 | -73.10421 | 37046 ft | 507 kts | 172° |
| 2026-05-05 20:05 | -25.64602 | -73.08185 | 37012 ft | 507 kts | 172° |
| 2026-05-05 20:05 | -25.71379 | -73.05926 | 37016 ft | 508 kts | 172° |
| 2026-05-05 20:06 | -25.78148 | -73.03667 | 37017 ft | 508 kts | 172° |
| 2026-05-05 20:06 | -25.84922 | -73.01402 | 37015 ft | 508 kts | 172° |
| 2026-05-05 20:07 | -25.91640 | -72.99155 | 37019 ft | 508 kts | 172° |
| 2026-05-05 20:07 | -25.98418 | -72.96884 | 37013 ft | 508 kts | 172° |
| 2026-05-05 20:08 | -26.05191 | -72.94613 | 37006 ft | 508 kts | 172° |
| 2026-05-05 20:08 | -26.11949 | -72.92343 | 37014 ft | 507 kts | 172° |
| 2026-05-05 20:09 | -26.18719 | -72.90067 | 37019 ft | 507 kts | 172° |
| 2026-05-05 20:09 | -26.25425 | -72.87809 | 37019 ft | 507 kts | 172° |
| 2026-05-05 20:10 | -26.32182 | -72.85532 | 37018 ft | 507 kts | 172° |
| 2026-05-05 20:10 | -26.38929 | -72.83255 | 37018 ft | 507 kts | 172° |
| 2026-05-05 20:11 | -26.45690 | -72.80971 | 37026 ft | 508 kts | 173° |
| 2026-05-05 20:11 | -26.52453 | -72.78683 | 37017 ft | 507 kts | 173° |
| 2026-05-05 20:12 | -26.59166 | -72.76410 | 37016 ft | 508 kts | 173° |
| 2026-05-05 20:12 | -26.65931 | -72.74115 | 37014 ft | 508 kts | 173° |
| 2026-05-05 20:13 | -26.72691 | -72.71821 | 37031 ft | 508 kts | 173° |
| 2026-05-05 20:13 | -26.79465 | -72.69517 | 37016 ft | 509 kts | 173° |
| 2026-05-05 20:14 | -26.86237 | -72.67212 | 37014 ft | 509 kts | 173° |
| 2026-05-05 20:14 | -26.93019 | -72.64901 | 37015 ft | 509 kts | 173° |
| 2026-05-05 20:15 | -26.99804 | -72.62586 | 37042 ft | 510 kts | 173° |
| 2026-05-05 20:15 | -27.06595 | -72.60266 | 37018 ft | 511 kts | 173° |
| 2026-05-05 20:16 | -27.13345 | -72.57956 | 37019 ft | 509 kts | 173° |
| 2026-05-05 20:16 | -27.20124 | -72.55635 | 37021 ft | 509 kts | 173° |
| 2026-05-05 20:17 | -27.26905 | -72.53309 | 37020 ft | 509 kts | 173° |
| 2026-05-05 20:17 | -27.33675 | -72.50985 | 37026 ft | 509 kts | 173° |
| 2026-05-05 20:18 | -27.40470 | -72.48649 | 37026 ft | 509 kts | 173° |
| 2026-05-05 20:18 | -27.46105 | -72.46710 | 37029 ft | 509 kts | 173° |
| 2026-05-05 20:19 | -27.52886 | -72.44374 | 37076 ft | 509 kts | 173° |
| 2026-05-05 20:19 | -27.59663 | -72.42044 | 37028 ft | 511 kts | 173° |
| 2026-05-05 20:20 | -27.66466 | -72.39702 | 37034 ft | 511 kts | 173° |
| 2026-05-05 20:20 | -27.73271 | -72.37356 | 37034 ft | 511 kts | 173° |
| 2026-05-05 20:21 | -27.80064 | -72.35012 | 37041 ft | 511 kts | 173° |
| 2026-05-05 20:21 | -27.86877 | -72.32657 | 37035 ft | 512 kts | 173° |
| 2026-05-05 20:22 | -27.93686 | -72.30301 | 37042 ft | 512 kts | 173° |
| 2026-05-05 20:22 | -28.00507 | -72.27938 | 37039 ft | 512 kts | 173° |
| 2026-05-05 20:23 | -28.07303 | -72.25580 | 37036 ft | 512 kts | 173° |
| 2026-05-05 20:23 | -28.14077 | -72.23227 | 37036 ft | 512 kts | 173° |
| 2026-05-05 20:24 | -28.20895 | -72.20855 | 37038 ft | 512 kts | 173° |
| 2026-05-05 20:24 | -28.27707 | -72.18482 | 37040 ft | 512 kts | 173° |
| 2026-05-05 20:25 | -28.34519 | -72.16106 | 37083 ft | 512 kts | 173° |
| 2026-05-05 20:25 | -28.41336 | -72.13725 | 37041 ft | 513 kts | 173° |
| 2026-05-05 20:26 | -28.48166 | -72.11337 | 37037 ft | 513 kts | 173° |
| 2026-05-05 20:26 | -28.54982 | -72.08937 | 37038 ft | 513 kts | 173° |
| 2026-05-05 20:27 | -28.61761 | -72.06549 | 37063 ft | 514 kts | 173° |
| 2026-05-05 20:27 | -28.68610 | -72.04132 | 37042 ft | 516 kts | 173° |
| 2026-05-05 20:28 | -28.75459 | -72.01713 | 37042 ft | 516 kts | 173° |
| 2026-05-05 20:28 | -28.82320 | -71.99285 | 37042 ft | 516 kts | 173° |
| 2026-05-05 20:29 | -28.89176 | -71.96856 | 37079 ft | 516 kts | 173° |
| 2026-05-05 20:29 | -28.96045 | -71.94419 | 37041 ft | 517 kts | 173° |
| 2026-05-05 20:30 | -29.02869 | -71.91995 | 37041 ft | 517 kts | 173° |
| 2026-05-05 20:30 | -29.09741 | -71.89550 | 37037 ft | 517 kts | 173° |
| 2026-05-05 20:31 | -29.16605 | -71.87105 | 37070 ft | 517 kts | 173° |
| 2026-05-05 20:31 | -29.23481 | -71.84652 | 37043 ft | 518 kts | 173° |
| 2026-05-05 20:32 | -29.30362 | -71.82193 | 37045 ft | 518 kts | 173° |
| 2026-05-05 20:32 | -29.37254 | -71.79728 | 37045 ft | 518 kts | 173° |
| 2026-05-05 20:33 | -29.44083 | -71.77282 | 37064 ft | 518 kts | 173° |
| 2026-05-05 20:33 | -29.50944 | -71.74839 | 37049 ft | 517 kts | 173° |
| 2026-05-05 20:34 | -29.57819 | -71.72395 | 37049 ft | 517 kts | 173° |
| 2026-05-05 20:34 | -29.64696 | -71.69945 | 37051 ft | 517 kts | 173° |
| 2026-05-05 20:35 | -29.71567 | -71.67494 | 37061 ft | 517 kts | 173° |
| 2026-05-05 20:35 | -29.78392 | -71.65056 | 37058 ft | 516 kts | 173° |
| 2026-05-05 20:36 | -29.85260 | -71.62599 | 37045 ft | 516 kts | 173° |
| 2026-05-05 20:36 | -29.92132 | -71.60137 | 37049 ft | 517 kts | 173° |
| 2026-05-05 20:37 | -29.98985 | -71.57679 | 37060 ft | 517 kts | 173° |
| 2026-05-05 20:37 | -30.05853 | -71.55212 | 37035 ft | 516 kts | 173° |
| 2026-05-05 20:38 | -30.12679 | -71.52755 | 37061 ft | 517 kts | 173° |
| 2026-05-05 20:38 | -30.19530 | -71.50287 | 37096 ft | 516 kts | 173° |
| 2026-05-05 20:38 | -30.22944 | -71.48871 | 37027 ft | 528 kts | 162° |
| 2026-05-05 20:39 | -30.26093 | -71.46599 | 37040 ft | 541 kts | 147° |
| 2026-05-05 20:39 | -30.28834 | -71.43535 | 37035 ft | 554 kts | 130° |
| 2026-05-05 20:39 | -30.30896 | -71.39758 | 37042 ft | 556 kts | 116° |
| 2026-05-05 20:40 | -30.34399 | -71.31732 | 37047 ft | 560 kts | 117° |
| 2026-05-05 20:40 | -30.37878 | -71.23700 | 37020 ft | 561 kts | 117° |
| 2026-05-05 20:41 | -30.41364 | -71.15613 | 37096 ft | 560 kts | 117° |
| 2026-05-05 20:41 | -30.44854 | -71.07562 | 37023 ft | 557 kts | 117° |
| 2026-05-05 20:42 | -30.48327 | -70.99536 | 37042 ft | 558 kts | 116° |
| 2026-05-05 20:42 | -30.51800 | -70.91491 | 37028 ft | 558 kts | 117° |
| 2026-05-05 20:43 | -30.55262 | -70.83415 | 37043 ft | 561 kts | 116° |
| 2026-05-05 20:43 | -30.58700 | -70.75266 | 37045 ft | 562 kts | 117° |
| 2026-05-05 20:44 | -30.62137 | -70.67173 | 37077 ft | 561 kts | 117° |
| 2026-05-05 20:44 | -30.65575 | -70.59050 | 37091 ft | 559 kts | 116° |
| 2026-05-05 20:45 | -30.70704 | -70.46929 | 37065 ft | 561 kts | 118° |
| 2026-05-05 20:45 | -30.74216 | -70.38775 | 37092 ft | 565 kts | 118° |
| 2026-05-05 20:46 | -30.77715 | -70.30602 | 37101 ft | 563 kts | 117° |
| 2026-05-05 20:46 | -30.81217 | -70.22460 | 37123 ft | 563 kts | 117° |
| 2026-05-05 20:47 | -30.84716 | -70.14301 | 37097 ft | 565 kts | 117° |
| 2026-05-05 20:47 | -30.86446 | -70.10272 | 36994 ft | 558 kts | 118° |
| 2026-05-05 20:47 | -30.88169 | -70.06239 | 37094 ft | 555 kts | 117° |
| 2026-05-05 20:48 | -30.91607 | -69.98182 | 37134 ft | 560 kts | 117° |
| 2026-05-05 20:48 | -30.95087 | -69.90020 | 37089 ft | 563 kts | 117° |
| 2026-05-05 20:49 | -30.98577 | -69.81808 | 36963 ft | 562 kts | 117° |
| 2026-05-05 20:49 | -31.02015 | -69.73704 | 36930 ft | 554 kts | 117° |
| 2026-05-05 20:50 | -31.05229 | -69.65544 | 36907 ft | 556 kts | 115° |
| 2026-05-05 20:50 | -31.08418 | -69.57385 | 36875 ft | 555 kts | 115° |
| 2026-05-05 20:51 | -31.11597 | -69.49173 | 36821 ft | 555 kts | 115° |
| 2026-05-05 20:51 | -31.14769 | -69.40963 | 36843 ft | 556 kts | 115° |
| 2026-05-05 20:52 | -31.17949 | -69.32739 | 36810 ft | 555 kts | 117° |
| 2026-05-05 20:52 | -31.19696 | -69.28734 | 36921 ft | 553 kts | 118° |
| 2026-05-05 20:52 | -31.21432 | -69.24714 | 36864 ft | 555 kts | 117° |
| 2026-05-05 20:53 | -31.24871 | -69.16674 | 36817 ft | 554 kts | 118° |
| 2026-05-05 20:53 | -31.28329 | -69.08566 | 36845 ft | 559 kts | 118° |
| 2026-05-05 20:54 | -31.31770 | -69.00479 | 36851 ft | 557 kts | 118° |
| 2026-05-05 20:54 | -31.35216 | -68.92362 | 36807 ft | 553 kts | 117° |
| 2026-05-05 20:55 | -31.36898 | -68.88387 | 36691 ft | 541 kts | 118° |
| 2026-05-05 20:55 | -31.38563 | -68.84459 | 36172 ft | 536 kts | 118° |
| 2026-05-05 20:55 | -31.40217 | -68.80554 | 35633 ft | 534 kts | 118° |
| 2026-05-05 20:55 | -31.41864 | -68.76656 | 35114 ft | 531 kts | 118° |
| 2026-05-05 20:56 | -31.43495 | -68.72793 | 34668 ft | 527 kts | 118° |
| 2026-05-05 20:56 | -31.45111 | -68.68962 | 34188 ft | 525 kts | 117° |
| 2026-05-05 20:56 | -31.46727 | -68.65125 | 33645 ft | 524 kts | 117° |
| 2026-05-05 20:56 | -31.48327 | -68.61325 | 33038 ft | 515 kts | 117° |
| 2026-05-05 20:57 | -31.49892 | -68.57602 | 32537 ft | 503 kts | 117° |
| 2026-05-05 20:57 | -31.51403 | -68.54006 | 32166 ft | 495 kts | 117° |
| 2026-05-05 20:57 | -31.52916 | -68.50404 | 31727 ft | 491 kts | 118° |
| 2026-05-05 20:57 | -31.54698 | -68.47023 | 31175 ft | 486 kts | 133° |
| 2026-05-05 20:58 | -31.57083 | -68.44296 | 30607 ft | 475 kts | 150° |
| 2026-05-05 20:58 | -31.59882 | -68.42348 | 30143 ft | 460 kts | 166° |
| 2026-05-05 20:58 | -31.62885 | -68.41319 | 29627 ft | 442 kts | 179° |
| 2026-05-05 20:58 | -31.65888 | -68.40668 | 29093 ft | 437 kts | 180° |
| 2026-05-05 20:59 | -31.68860 | -68.40084 | 28637 ft | 427 kts | 180° |
| 2026-05-05 20:59 | -31.71744 | -68.39553 | 28233 ft | 413 kts | 181° |
| 2026-05-05 20:59 | -31.74544 | -68.39057 | 27835 ft | 403 kts | 181° |
| 2026-05-05 20:59 | -31.77307 | -68.38581 | 27432 ft | 400 kts | 181° |
| 2026-05-05 21:00 | -31.80059 | -68.38111 | 27047 ft | 398 kts | 180° |
| 2026-05-05 21:00 | -31.82783 | -68.37646 | 26641 ft | 396 kts | 180° |
| 2026-05-05 21:00 | -31.85505 | -68.37181 | 26238 ft | 394 kts | 180° |
| 2026-05-05 21:00 | -31.88209 | -68.36718 | 25849 ft | 392 kts | 180° |
| 2026-05-05 21:01 | -31.90908 | -68.36256 | 25458 ft | 390 kts | 180° |
| 2026-05-05 21:01 | -31.93594 | -68.35797 | 25083 ft | 389 kts | 180° |
| 2026-05-05 21:01 | -31.96227 | -68.35346 | 24703 ft | 386 kts | 180° |
| 2026-05-05 21:01 | -31.98857 | -68.34895 | 24326 ft | 379 kts | 180° |
| 2026-05-05 21:02 | -32.01455 | -68.34450 | 23961 ft | 375 kts | 180° |
| 2026-05-05 21:02 | -32.04032 | -68.34009 | 23595 ft | 373 kts | 181° |
| 2026-05-05 21:02 | -32.06560 | -68.33992 | 23081 ft | 357 kts | 200° |
| 2026-05-05 21:02 | -32.08957 | -68.34640 | 22666 ft | 352 kts | 201° |
| 2026-05-05 21:03 | -32.11331 | -68.35263 | 22348 ft | 348 kts | 202° |
| 2026-05-05 21:03 | -32.13680 | -68.35898 | 22001 ft | 344 kts | 202° |
| 2026-05-05 21:03 | -32.16006 | -68.36539 | 21670 ft | 341 kts | 202° |
| 2026-05-05 21:03 | -32.18307 | -68.37180 | 21320 ft | 338 kts | 202° |
| 2026-05-05 21:04 | -32.20586 | -68.37817 | 20985 ft | 336 kts | 202° |
| 2026-05-05 21:04 | -32.22086 | -68.38237 | 20760 ft | 334 kts | 202° |
| 2026-05-05 21:04 | -32.25069 | -68.39074 | 20317 ft | 331 kts | 202° |
| 2026-05-05 21:04 | -32.27304 | -68.39701 | 19985 ft | 329 kts | 202° |
| 2026-05-05 21:05 | -32.29520 | -68.40324 | 19657 ft | 326 kts | 202° |
| 2026-05-05 21:05 | -32.30974 | -68.40732 | 19452 ft | 325 kts | 202° |
| 2026-05-05 21:05 | -32.33169 | -68.41349 | 19127 ft | 323 kts | 202° |
| 2026-05-05 21:05 | -32.35354 | -68.41964 | 18801 ft | 322 kts | 202° |
| 2026-05-05 21:06 | -32.37531 | -68.42577 | 18467 ft | 320 kts | 202° |
| 2026-05-05 21:06 | -32.39696 | -68.43186 | 18159 ft | 319 kts | 202° |
| 2026-05-05 21:06 | -32.41853 | -68.43794 | 17803 ft | 318 kts | 202° |
| 2026-05-05 21:06 | -32.43998 | -68.44398 | 17469 ft | 315 kts | 201° |
| 2026-05-05 21:07 | -32.46123 | -68.44997 | 17144 ft | 313 kts | 201° |
| 2026-05-05 21:07 | -32.48230 | -68.45591 | 16838 ft | 310 kts | 201° |
| 2026-05-05 21:07 | -32.50325 | -68.46183 | 16516 ft | 308 kts | 201° |
| 2026-05-05 21:07 | -32.52414 | -68.46773 | 16211 ft | 311 kts | 201° |
| 2026-05-05 21:08 | -32.54533 | -68.47372 | 15896 ft | 316 kts | 201° |
| 2026-05-05 21:08 | -32.56673 | -68.47977 | 15576 ft | 318 kts | 201° |
| 2026-05-05 21:08 | -32.58796 | -68.48577 | 15276 ft | 317 kts | 200° |
| 2026-05-05 21:08 | -32.60935 | -68.49182 | 14963 ft | 315 kts | 200° |
| 2026-05-05 21:09 | -32.63059 | -68.49783 | 14647 ft | 313 kts | 200° |
| 2026-05-05 21:09 | -32.65181 | -68.50385 | 14282 ft | 314 kts | 200° |
| 2026-05-05 21:09 | -32.67297 | -68.50984 | 13979 ft | 312 kts | 200° |
| 2026-05-05 21:09 | -32.69400 | -68.51580 | 13685 ft | 310 kts | 200° |
| 2026-05-05 21:10 | -32.71497 | -68.52175 | 13341 ft | 309 kts | 200° |
| 2026-05-05 21:10 | -32.73581 | -68.52766 | 13025 ft | 307 kts | 199° |
| 2026-05-05 21:10 | -32.75653 | -68.53357 | 12721 ft | 304 kts | 199° |
| 2026-05-05 21:10 | -32.77707 | -68.53939 | 12401 ft | 303 kts | 198° |
| 2026-05-05 21:11 | -32.79744 | -68.54517 | 12110 ft | 301 kts | 198° |
| 2026-05-05 21:11 | -32.81780 | -68.55096 | 11764 ft | 301 kts | 198° |
| 2026-05-05 21:11 | -32.83806 | -68.55672 | 11481 ft | 299 kts | 199° |
| 2026-05-05 21:11 | -32.85822 | -68.56246 | 11192 ft | 297 kts | 199° |
| 2026-05-05 21:12 | -32.87828 | -68.56816 | 10885 ft | 295 kts | 198° |
| 2026-05-05 21:12 | -32.89822 | -68.57385 | 10575 ft | 294 kts | 198° |
| 2026-05-05 21:12 | -32.91807 | -68.57950 | 10277 ft | 292 kts | 198° |
| 2026-05-05 21:12 | -32.93755 | -68.58506 | 10004 ft | 290 kts | 198° |
| 2026-05-05 21:13 | -32.95700 | -68.59061 | 9786 ft | 286 kts | 198° |
| 2026-05-05 21:13 | -32.97628 | -68.59611 | 9473 ft | 284 kts | 198° |
| 2026-05-05 21:13 | -32.99543 | -68.60157 | 9221 ft | 280 kts | 197° |
| 2026-05-05 21:13 | -33.01397 | -68.60687 | 9058 ft | 267 kts | 197° |
| 2026-05-05 21:14 | -33.03170 | -68.61193 | 8954 ft | 258 kts | 197° |
| 2026-05-05 21:14 | -33.04834 | -68.61827 | 8744 ft | 247 kts | 213° |
| 2026-05-05 21:14 | -33.06097 | -68.63118 | 8485 ft | 237 kts | 238° |
| 2026-05-05 21:14 | -33.06854 | -68.64862 | 8270 ft | 240 kts | 250° |
| 2026-05-05 21:15 | -33.07545 | -68.66698 | 8030 ft | 245 kts | 248° |
| 2026-05-05 21:15 | -33.08194 | -68.68589 | 7736 ft | 247 kts | 251° |
| 2026-05-05 21:15 | -33.08724 | -68.70540 | 7433 ft | 247 kts | 256° |
| 2026-05-05 21:15 | -33.09134 | -68.72521 | 7152 ft | 246 kts | 259° |
| 2026-05-05 21:16 | -33.09434 | -68.74532 | 6888 ft | 244 kts | 263° |
| 2026-05-05 21:16 | -33.09367 | -68.76515 | 6687 ft | 238 kts | 288° |
| 2026-05-05 21:16 | -33.08573 | -68.78195 | 6520 ft | 231 kts | 314° |
| 2026-05-05 21:16 | -33.07263 | -68.79218 | 6358 ft | 224 kts | 342° |
| 2026-05-05 21:17 | -33.05725 | -68.79464 | 6243 ft | 228 kts | 358° |
| 2026-05-05 21:17 | -33.04133 | -68.79500 | 6123 ft | 224 kts | 359° |
| 2026-05-05 21:17 | -33.02622 | -68.79516 | 5883 ft | 211 kts | 360° |
| 2026-05-05 21:17 | -33.01163 | -68.79518 | 5542 ft | 210 kts | 1° |
| 2026-05-05 21:18 | -32.99707 | -68.79512 | 5228 ft | 208 kts | 1° |
| 2026-05-05 21:18 | -32.98272 | -68.79528 | 4968 ft | 202 kts | 1° |
| 2026-05-05 21:18 | -32.96954 | -68.79548 | 4774 ft | 178 kts | 1° |
| 2026-05-05 21:18 | -32.95742 | -68.79544 | 4563 ft | 173 kts | 4° |
| 2026-05-05 21:19 | -32.94540 | -68.79524 | 4316 ft | 171 kts | 4° |
| 2026-05-05 21:19 | -32.93350 | -68.79499 | 4151 ft | 171 kts | 4° |
| 2026-05-05 21:19 | -32.92196 | -68.79478 | 3898 ft | 161 kts | 2° |
| 2026-05-05 21:19 | -32.91106 | -68.79456 | 3660 ft | 156 kts | 5° |
| 2026-05-05 21:20 | -32.90004 | -68.79429 | 3487 ft | 157 kts | 2° |
| 2026-05-05 21:20 | -32.88915 | -68.79418 | 3296 ft | 156 kts | 4° |
| 2026-05-05 21:20 | -32.87841 | -68.79380 | 3103 ft | 156 kts | 3° |
| 2026-05-05 21:20 | -32.86753 | -68.79365 | 2889 ft | 157 kts | 2° |
| 2026-05-05 21:21 | -32.85667 | -68.79350 | 2683 ft | 156 kts | 3° |
| 2026-05-05 21:21 | -32.84589 | -68.79325 | 2463 ft | 155 kts | 2° |
| 2026-05-05 21:21 | -32.83569 | -68.79302 | 2391 ft | 126 kts | 2° |
| 2026-05-05 21:21 | -32.82948 | -68.79284 | 2395 ft | 58 kts | 0° |
| 2026-05-05 21:22 | -32.82653 | -68.79279 | 2395 ft | 26 kts | 1° |
| 2026-05-05 21:22 | -32.82544 | -68.79333 | 2397 ft | 14 kts | 281° |
| 2026-05-05 21:22 | -32.82576 | -68.79415 | 2394 ft | 8 kts | 224° |
| 2026-05-05 21:22 | -32.82615 | -68.79462 | 2393 ft | 7 kts | 225° |
| 2026-05-05 21:23 | -32.82639 | -68.79493 | 2395 ft | 5 kts | 231° |
| 2026-05-05 21:23 | -32.82656 | -68.79529 | 2393 ft | 6 kts | 247° |
| 2026-05-05 21:23 | -32.82671 | -68.79581 | 2393 ft | 8 kts | 259° |
| 2026-05-05 21:23 | -32.82673 | -68.79644 | 2393 ft | 8 kts | 271° |
| 2026-05-05 21:24 | -32.82684 | -68.79698 | 2394 ft | 6 kts | 212° |
| 2026-05-05 21:24 | -32.82720 | -68.79706 | 2393 ft | 4 kts | 182° |
| 2026-05-05 21:24 | -32.82738 | -68.79707 | 2394 ft | 1 kts | 181° |
| 2026-05-05 21:24 | -32.82753 | -68.79709 | 2393 ft | 2 kts | 200° |
| 2026-05-05 21:25 | -32.82760 | -68.79725 | 2393 ft | 3 kts | 264° |
| 2026-05-05 21:25 | -32.82762 | -68.79753 | 2392 ft | 3 kts | 263° |
| 2026-05-05 21:25 | -32.82764 | -68.79775 | 2391 ft | 2 kts | 265° |
| 2026-05-05 21:25 | -32.82764 | -68.79778 | 2391 ft | 0 kts | 265° |